sensor_id;sensor_type;location;lat;lon;timestamp;P1;durP1;ratioP1;P2;durP2;ratioP2
31990;SDS011;18508;49.386;8.370;2022-09-09T00:00:13;5.53;;;2.60;;
31990;SDS011;18508;49.386;8.370;2022-09-09T00:02:44;7.22;;;2.83;;
31990;SDS011;18508;49.386;8.370;2022-09-09T00:05:19;6.50;;;2.33;;
31990;SDS011;18508;49.386;8.370;2022-09-09T00:08:01;6.00;;;2.05;;
31990;SDS011;18508;49.386;8.370;2022-09-09T00:10:32;7.18;;;2.13;;
31990;SDS011;18508;49.386;8.370;2022-09-09T00:13:08;7.28;;;3.00;;
31990;SDS011;18508;49.386;8.370;2022-09-09T00:15:46;3.85;;;2.25;;
31990;SDS011;18508;49.386;8.370;2022-09-09T00:18:23;7.10;;;2.30;;
31990;SDS011;18508;49.386;8.370;2022-09-09T00:21:05;7.22;;;2.20;;
31990;SDS011;18508;49.386;8.370;2022-09-09T00:23:37;5.10;;;2.08;;
31990;SDS011;18508;49.386;8.370;2022-09-09T00:26:09;5.13;;;2.03;;
31990;SDS011;18508;49.386;8.370;2022-09-09T00:28:48;4.60;;;1.90;;
31990;SDS011;18508;49.386;8.370;2022-09-09T00:33:50;5.72;;;2.53;;
31990;SDS011;18508;49.386;8.370;2022-09-09T00:36:23;6.88;;;1.90;;
31990;SDS011;18508;49.386;8.370;2022-09-09T00:38:56;8.00;;;1.90;;
31990;SDS011;18508;49.386;8.370;2022-09-09T00:41:29;4.22;;;1.92;;
31990;SDS011;18508;49.386;8.370;2022-09-09T00:44:14;2.92;;;1.65;;
31990;SDS011;18508;49.386;8.370;2022-09-09T00:46:55;4.60;;;1.83;;
31990;SDS011;18508;49.386;8.370;2022-09-09T00:49:37;4.75;;;1.85;;
31990;SDS011;18508;49.386;8.370;2022-09-09T00:52:17;4.50;;;1.90;;
31990;SDS011;18508;49.386;8.370;2022-09-09T00:54:55;7.60;;;1.92;;
31990;SDS011;18508;49.386;8.370;2022-09-09T00:57:34;8.32;;;2.08;;
31990;SDS011;18508;49.386;8.370;2022-09-09T01:00:22;5.93;;;2.10;;
31990;SDS011;18508;49.386;8.370;2022-09-09T01:02:53;4.10;;;1.70;;
31990;SDS011;18508;49.386;8.370;2022-09-09T01:05:33;5.90;;;2.33;;
31990;SDS011;18508;49.386;8.370;2022-09-09T01:08:09;6.82;;;2.53;;
31990;SDS011;18508;49.386;8.370;2022-09-09T01:10:48;7.60;;;2.35;;
31990;SDS011;18508;49.386;8.370;2022-09-09T01:13:21;5.00;;;2.05;;
31990;SDS011;18508;49.386;8.370;2022-09-09T01:18:27;6.50;;;2.25;;
31990;SDS011;18508;49.386;8.370;2022-09-09T01:21:02;5.45;;;1.75;;
31990;SDS011;18508;49.386;8.370;2022-09-09T01:23:51;3.72;;;2.00;;
31990;SDS011;18508;49.386;8.370;2022-09-09T01:26:38;4.03;;;1.70;;
31990;SDS011;18508;49.386;8.370;2022-09-09T01:29:09;8.15;;;2.10;;
31990;SDS011;18508;49.386;8.370;2022-09-09T01:31:40;6.07;;;1.88;;
31990;SDS011;18508;49.386;8.370;2022-09-09T01:34:10;3.90;;;1.98;;
31990;SDS011;18508;49.386;8.370;2022-09-09T01:36:41;6.35;;;1.90;;
31990;SDS011;18508;49.386;8.370;2022-09-09T01:39:11;5.22;;;1.70;;
31990;SDS011;18508;49.386;8.370;2022-09-09T01:41:41;6.65;;;1.70;;
31990;SDS011;18508;49.386;8.370;2022-09-09T01:44:12;6.35;;;2.10;;
31990;SDS011;18508;49.386;8.370;2022-09-09T01:46:40;5.15;;;1.90;;
31990;SDS011;18508;49.386;8.370;2022-09-09T01:49:09;6.57;;;2.08;;
31990;SDS011;18508;49.386;8.370;2022-09-09T01:51:38;4.68;;;1.52;;
31990;SDS011;18508;49.386;8.370;2022-09-09T01:54:08;4.63;;;1.70;;
31990;SDS011;18508;49.386;8.370;2022-09-09T01:56:40;4.95;;;1.60;;
31990;SDS011;18508;49.386;8.370;2022-09-09T01:59:25;8.85;;;1.85;;
31990;SDS011;18508;49.386;8.370;2022-09-09T02:02:17;6.45;;;2.28;;
31990;SDS011;18508;49.386;8.370;2022-09-09T02:04:49;4.93;;;1.77;;
31990;SDS011;18508;49.386;8.370;2022-09-09T02:07:24;6.18;;;2.13;;
31990;SDS011;18508;49.386;8.370;2022-09-09T02:10:21;6.40;;;1.77;;
31990;SDS011;18508;49.386;8.370;2022-09-09T02:12:55;6.78;;;2.40;;
31990;SDS011;18508;49.386;8.370;2022-09-09T02:15:32;12.25;;;2.20;;
31990;SDS011;18508;49.386;8.370;2022-09-09T02:18:03;7.82;;;2.30;;
31990;SDS011;18508;49.386;8.370;2022-09-09T02:20:34;8.32;;;1.80;;
31990;SDS011;18508;49.386;8.370;2022-09-09T02:23:05;5.35;;;2.08;;
31990;SDS011;18508;49.386;8.370;2022-09-09T02:25:35;6.80;;;2.15;;
31990;SDS011;18508;49.386;8.370;2022-09-09T02:28:06;5.93;;;1.92;;
31990;SDS011;18508;49.386;8.370;2022-09-09T02:30:37;4.50;;;1.80;;
31990;SDS011;18508;49.386;8.370;2022-09-09T02:33:07;5.18;;;1.88;;
31990;SDS011;18508;49.386;8.370;2022-09-09T02:38:10;9.50;;;2.50;;
31990;SDS011;18508;49.386;8.370;2022-09-09T02:40:40;7.95;;;1.92;;
31990;SDS011;18508;49.386;8.370;2022-09-09T02:43:10;5.70;;;2.20;;
31990;SDS011;18508;49.386;8.370;2022-09-09T02:45:39;6.32;;;2.05;;
31990;SDS011;18508;49.386;8.370;2022-09-09T02:48:21;6.88;;;2.38;;
31990;SDS011;18508;49.386;8.370;2022-09-09T02:50:58;7.32;;;1.65;;
31990;SDS011;18508;49.386;8.370;2022-09-09T02:53:39;7.32;;;1.63;;
31990;SDS011;18508;49.386;8.370;2022-09-09T02:56:14;5.32;;;1.50;;
31990;SDS011;18508;49.386;8.370;2022-09-09T02:58:48;8.68;;;2.72;;
31990;SDS011;18508;49.386;8.370;2022-09-09T03:01:20;5.07;;;1.50;;
31990;SDS011;18508;49.386;8.370;2022-09-09T03:03:51;6.03;;;2.08;;
31990;SDS011;18508;49.386;8.370;2022-09-09T03:06:21;6.65;;;2.10;;
31990;SDS011;18508;49.386;8.370;2022-09-09T03:08:49;9.57;;;1.90;;
31990;SDS011;18508;49.386;8.370;2022-09-09T03:11:18;7.93;;;2.10;;
31990;SDS011;18508;49.386;8.370;2022-09-09T03:13:50;6.47;;;2.13;;
31990;SDS011;18508;49.386;8.370;2022-09-09T03:16:19;5.57;;;1.45;;
31990;SDS011;18508;49.386;8.370;2022-09-09T03:18:47;7.65;;;1.80;;
31990;SDS011;18508;49.386;8.370;2022-09-09T03:21:16;7.18;;;1.30;;
31990;SDS011;18508;49.386;8.370;2022-09-09T03:23:47;4.47;;;1.70;;
31990;SDS011;18508;49.386;8.370;2022-09-09T03:26:16;9.70;;;1.88;;
31990;SDS011;18508;49.386;8.370;2022-09-09T03:28:45;4.57;;;1.55;;
31990;SDS011;18508;49.386;8.370;2022-09-09T03:31:14;5.32;;;1.60;;
31990;SDS011;18508;49.386;8.370;2022-09-09T03:33:42;7.35;;;1.90;;
31990;SDS011;18508;49.386;8.370;2022-09-09T03:36:13;10.35;;;1.67;;
31990;SDS011;18508;49.386;8.370;2022-09-09T03:38:42;6.97;;;1.80;;
31990;SDS011;18508;49.386;8.370;2022-09-09T03:41:10;8.10;;;1.70;;
31990;SDS011;18508;49.386;8.370;2022-09-09T03:43:39;5.72;;;1.30;;
31990;SDS011;18508;49.386;8.370;2022-09-09T03:46:07;5.45;;;1.27;;
31990;SDS011;18508;49.386;8.370;2022-09-09T03:48:37;7.40;;;1.60;;
31990;SDS011;18508;49.386;8.370;2022-09-09T03:51:05;5.63;;;1.60;;
31990;SDS011;18508;49.386;8.370;2022-09-09T03:53:35;4.95;;;1.33;;
31990;SDS011;18508;49.386;8.370;2022-09-09T03:56:04;6.18;;;1.55;;
31990;SDS011;18508;49.386;8.370;2022-09-09T03:58:34;6.03;;;2.42;;
31990;SDS011;18508;49.386;8.370;2022-09-09T04:01:04;4.93;;;1.80;;
31990;SDS011;18508;49.386;8.370;2022-09-09T04:03:35;5.20;;;1.67;;
31990;SDS011;18508;49.386;8.370;2022-09-09T04:06:05;9.48;;;1.65;;
31990;SDS011;18508;49.386;8.370;2022-09-09T04:08:38;3.63;;;1.08;;
31990;SDS011;18508;49.386;8.370;2022-09-09T04:11:07;4.30;;;1.25;;
31990;SDS011;18508;49.386;8.370;2022-09-09T04:13:37;5.25;;;1.02;;
31990;SDS011;18508;49.386;8.370;2022-09-09T04:16:06;7.03;;;1.30;;
31990;SDS011;18508;49.386;8.370;2022-09-09T04:18:38;4.05;;;1.17;;
31990;SDS011;18508;49.386;8.370;2022-09-09T04:21:09;5.07;;;0.90;;
31990;SDS011;18508;49.386;8.370;2022-09-09T04:23:39;2.80;;;0.95;;
31990;SDS011;18508;49.386;8.370;2022-09-09T04:26:08;5.07;;;1.25;;
31990;SDS011;18508;49.386;8.370;2022-09-09T04:28:37;8.48;;;1.35;;
31990;SDS011;18508;49.386;8.370;2022-09-09T04:31:05;7.10;;;0.90;;
31990;SDS011;18508;49.386;8.370;2022-09-09T04:33:35;3.67;;;0.98;;
31990;SDS011;18508;49.386;8.370;2022-09-09T04:36:09;3.38;;;0.98;;
31990;SDS011;18508;49.386;8.370;2022-09-09T04:38:39;3.33;;;0.90;;
31990;SDS011;18508;49.386;8.370;2022-09-09T04:41:08;5.43;;;1.13;;
31990;SDS011;18508;49.386;8.370;2022-09-09T04:43:38;3.55;;;0.98;;
31990;SDS011;18508;49.386;8.370;2022-09-09T04:46:07;4.20;;;1.02;;
31990;SDS011;18508;49.386;8.370;2022-09-09T04:48:36;3.08;;;0.98;;
31990;SDS011;18508;49.386;8.370;2022-09-09T04:51:11;4.78;;;0.80;;
31990;SDS011;18508;49.386;8.370;2022-09-09T04:53:42;9.10;;;1.20;;
31990;SDS011;18508;49.386;8.370;2022-09-09T04:56:11;4.43;;;1.00;;
31990;SDS011;18508;49.386;8.370;2022-09-09T04:58:41;6.13;;;1.00;;
31990;SDS011;18508;49.386;8.370;2022-09-09T05:01:11;7.70;;;1.95;;
31990;SDS011;18508;49.386;8.370;2022-09-09T05:03:40;2.58;;;0.90;;
31990;SDS011;18508;49.386;8.370;2022-09-09T05:06:10;3.38;;;1.10;;
31990;SDS011;18508;49.386;8.370;2022-09-09T05:08:40;4.13;;;0.93;;
31990;SDS011;18508;49.386;8.370;2022-09-09T05:11:13;3.65;;;0.88;;
31990;SDS011;18508;49.386;8.370;2022-09-09T05:13:43;5.13;;;1.30;;
31990;SDS011;18508;49.386;8.370;2022-09-09T05:16:13;5.40;;;1.23;;
31990;SDS011;18508;49.386;8.370;2022-09-09T05:18:41;2.30;;;0.95;;
31990;SDS011;18508;49.386;8.370;2022-09-09T05:21:12;5.18;;;0.80;;
31990;SDS011;18508;49.386;8.370;2022-09-09T05:23:42;3.42;;;1.30;;
31990;SDS011;18508;49.386;8.370;2022-09-09T05:26:12;5.20;;;1.13;;
31990;SDS011;18508;49.386;8.370;2022-09-09T05:28:43;3.88;;;1.08;;
31990;SDS011;18508;49.386;8.370;2022-09-09T05:31:12;5.25;;;1.08;;
31990;SDS011;18508;49.386;8.370;2022-09-09T05:33:43;3.85;;;1.13;;
31990;SDS011;18508;49.386;8.370;2022-09-09T05:36:14;2.72;;;1.10;;
31990;SDS011;18508;49.386;8.370;2022-09-09T05:38:44;1.77;;;1.02;;
31990;SDS011;18508;49.386;8.370;2022-09-09T05:41:13;5.07;;;1.38;;
31990;SDS011;18508;49.386;8.370;2022-09-09T05:43:42;4.85;;;1.33;;
31990;SDS011;18508;49.386;8.370;2022-09-09T05:46:13;3.85;;;1.10;;
31990;SDS011;18508;49.386;8.370;2022-09-09T05:48:43;5.25;;;1.20;;
31990;SDS011;18508;49.386;8.370;2022-09-09T05:51:15;5.53;;;1.75;;
31990;SDS011;18508;49.386;8.370;2022-09-09T05:53:45;6.28;;;1.30;;
31990;SDS011;18508;49.386;8.370;2022-09-09T05:56:13;6.90;;;1.10;;
31990;SDS011;18508;49.386;8.370;2022-09-09T05:58:44;7.13;;;1.55;;
31990;SDS011;18508;49.386;8.370;2022-09-09T06:01:14;4.68;;;1.10;;
31990;SDS011;18508;49.386;8.370;2022-09-09T06:03:44;5.13;;;1.30;;
31990;SDS011;18508;49.386;8.370;2022-09-09T06:06:16;6.45;;;1.10;;
31990;SDS011;18508;49.386;8.370;2022-09-09T06:08:47;7.15;;;1.30;;
31990;SDS011;18508;49.386;8.370;2022-09-09T06:11:19;6.18;;;1.00;;
31990;SDS011;18508;49.386;8.370;2022-09-09T06:13:48;3.80;;;1.02;;
31990;SDS011;18508;49.386;8.370;2022-09-09T06:16:20;4.43;;;0.95;;
31990;SDS011;18508;49.386;8.370;2022-09-09T06:18:50;3.42;;;0.90;;
31990;SDS011;18508;49.386;8.370;2022-09-09T06:21:21;7.45;;;1.15;;
31990;SDS011;18508;49.386;8.370;2022-09-09T06:23:51;2.45;;;1.05;;
31990;SDS011;18508;49.386;8.370;2022-09-09T06:26:26;4.72;;;1.10;;
31990;SDS011;18508;49.386;8.370;2022-09-09T06:28:57;4.65;;;1.50;;
31990;SDS011;18508;49.386;8.370;2022-09-09T06:31:28;6.32;;;1.25;;
31990;SDS011;18508;49.386;8.370;2022-09-09T06:34:00;7.97;;;1.80;;
31990;SDS011;18508;49.386;8.370;2022-09-09T06:36:31;8.32;;;1.27;;
31990;SDS011;18508;49.386;8.370;2022-09-09T06:39:05;2.10;;;0.85;;
31990;SDS011;18508;49.386;8.370;2022-09-09T06:41:39;7.22;;;1.23;;
31990;SDS011;18508;49.386;8.370;2022-09-09T06:44:09;2.42;;;1.10;;
31990;SDS011;18508;49.386;8.370;2022-09-09T06:46:42;3.22;;;1.05;;
31990;SDS011;18508;49.386;8.370;2022-09-09T06:49:13;3.03;;;0.90;;
31990;SDS011;18508;49.386;8.370;2022-09-09T06:51:43;4.50;;;1.30;;
31990;SDS011;18508;49.386;8.370;2022-09-09T06:54:12;4.20;;;0.90;;
31990;SDS011;18508;49.386;8.370;2022-09-09T06:56:41;2.45;;;0.80;;
31990;SDS011;18508;49.386;8.370;2022-09-09T06:59:11;3.95;;;1.05;;
31990;SDS011;18508;49.386;8.370;2022-09-09T07:01:40;4.03;;;0.82;;
31990;SDS011;18508;49.386;8.370;2022-09-09T07:04:10;5.03;;;1.23;;
31990;SDS011;18508;49.386;8.370;2022-09-09T07:06:40;3.28;;;0.95;;
31990;SDS011;18508;49.386;8.370;2022-09-09T07:09:12;8.50;;;1.40;;
31990;SDS011;18508;49.386;8.370;2022-09-09T07:11:41;4.60;;;1.00;;
31990;SDS011;18508;49.386;8.370;2022-09-09T07:14:10;5.05;;;1.42;;
31990;SDS011;18508;49.386;8.370;2022-09-09T07:16:40;5.07;;;1.05;;
31990;SDS011;18508;49.386;8.370;2022-09-09T07:19:09;5.05;;;1.42;;
31990;SDS011;18508;49.386;8.370;2022-09-09T07:21:37;4.25;;;1.20;;
31990;SDS011;18508;49.386;8.370;2022-09-09T07:24:08;6.15;;;1.40;;
31990;SDS011;18508;49.386;8.370;2022-09-09T07:26:39;6.68;;;1.00;;
31990;SDS011;18508;49.386;8.370;2022-09-09T07:29:08;4.80;;;1.02;;
31990;SDS011;18508;49.386;8.370;2022-09-09T07:31:45;9.60;;;1.52;;
31990;SDS011;18508;49.386;8.370;2022-09-09T07:34:14;4.22;;;1.00;;
31990;SDS011;18508;49.386;8.370;2022-09-09T07:36:42;4.05;;;1.48;;
31990;SDS011;18508;49.386;8.370;2022-09-09T07:39:13;4.80;;;1.27;;
31990;SDS011;18508;49.386;8.370;2022-09-09T07:41:44;4.28;;;0.75;;
31990;SDS011;18508;49.386;8.370;2022-09-09T07:44:13;3.97;;;1.80;;
31990;SDS011;18508;49.386;8.370;2022-09-09T07:46:45;4.68;;;1.10;;
31990;SDS011;18508;49.386;8.370;2022-09-09T07:49:14;4.80;;;1.10;;
31990;SDS011;18508;49.386;8.370;2022-09-09T07:51:51;4.80;;;1.05;;
31990;SDS011;18508;49.386;8.370;2022-09-09T07:54:21;4.53;;;0.98;;
31990;SDS011;18508;49.386;8.370;2022-09-09T07:56:50;4.90;;;1.13;;
31990;SDS011;18508;49.386;8.370;2022-09-09T07:59:19;4.85;;;1.30;;
31990;SDS011;18508;49.386;8.370;2022-09-09T08:01:48;4.28;;;1.10;;
31990;SDS011;18508;49.386;8.370;2022-09-09T08:04:21;7.18;;;1.17;;
31990;SDS011;18508;49.386;8.370;2022-09-09T08:06:52;7.35;;;1.30;;
31990;SDS011;18508;49.386;8.370;2022-09-09T08:09:23;4.30;;;0.80;;
31990;SDS011;18508;49.386;8.370;2022-09-09T08:11:53;5.80;;;1.10;;
31990;SDS011;18508;49.386;8.370;2022-09-09T08:14:24;8.25;;;1.85;;
31990;SDS011;18508;49.386;8.370;2022-09-09T08:16:53;6.03;;;1.40;;
31990;SDS011;18508;49.386;8.370;2022-09-09T08:19:26;6.20;;;1.80;;
31990;SDS011;18508;49.386;8.370;2022-09-09T08:22:08;5.28;;;1.50;;
31990;SDS011;18508;49.386;8.370;2022-09-09T08:24:38;6.32;;;1.48;;
31990;SDS011;18508;49.386;8.370;2022-09-09T08:27:08;6.47;;;1.20;;
31990;SDS011;18508;49.386;8.370;2022-09-09T08:29:38;7.43;;;1.40;;
31990;SDS011;18508;49.386;8.370;2022-09-09T08:32:14;6.03;;;1.45;;
31990;SDS011;18508;49.386;8.370;2022-09-09T08:35:18;10.82;;;1.40;;
31990;SDS011;18508;49.386;8.370;2022-09-09T08:37:56;6.60;;;1.67;;
31990;SDS011;18508;49.386;8.370;2022-09-09T08:40:28;6.72;;;1.73;;
31990;SDS011;18508;49.386;8.370;2022-09-09T08:43:00;4.82;;;1.25;;
31990;SDS011;18508;49.386;8.370;2022-09-09T08:45:32;7.57;;;1.77;;
31990;SDS011;18508;49.386;8.370;2022-09-09T08:48:15;8.00;;;1.38;;
31990;SDS011;18508;49.386;8.370;2022-09-09T08:50:58;7.55;;;1.25;;
31990;SDS011;18508;49.386;8.370;2022-09-09T08:53:30;4.90;;;1.33;;
31990;SDS011;18508;49.386;8.370;2022-09-09T08:56:09;5.22;;;1.30;;
31990;SDS011;18508;49.386;8.370;2022-09-09T08:58:42;8.60;;;1.40;;
31990;SDS011;18508;49.386;8.370;2022-09-09T09:01:21;5.38;;;1.50;;
31990;SDS011;18508;49.386;8.370;2022-09-09T09:04:46;5.40;;;1.48;;
31990;SDS011;18508;49.386;8.370;2022-09-09T09:08:01;8.93;;;1.63;;
31990;SDS011;18508;49.386;8.370;2022-09-09T09:11:11;5.97;;;1.40;;
31990;SDS011;18508;49.386;8.370;2022-09-09T09:13:47;8.90;;;2.05;;
31990;SDS011;18508;49.386;8.370;2022-09-09T09:16:23;4.60;;;1.20;;
31990;SDS011;18508;49.386;8.370;2022-09-09T09:18:58;8.18;;;1.40;;
31990;SDS011;18508;49.386;8.370;2022-09-09T09:21:29;5.38;;;1.50;;
31990;SDS011;18508;49.386;8.370;2022-09-09T09:24:03;4.50;;;1.40;;
31990;SDS011;18508;49.386;8.370;2022-09-09T09:26:37;6.07;;;1.40;;
31990;SDS011;18508;49.386;8.370;2022-09-09T09:31:38;5.43;;;1.80;;
31990;SDS011;18508;49.386;8.370;2022-09-09T09:34:07;9.65;;;2.40;;
31990;SDS011;18508;49.386;8.370;2022-09-09T09:36:38;14.13;;;2.95;;
31990;SDS011;18508;49.386;8.370;2022-09-09T09:39:21;10.98;;;2.72;;
31990;SDS011;18508;49.386;8.370;2022-09-09T09:42:14;9.20;;;2.97;;
31990;SDS011;18508;49.386;8.370;2022-09-09T09:44:48;12.90;;;3.00;;
31990;SDS011;18508;49.386;8.370;2022-09-09T09:47:20;12.85;;;2.95;;
31990;SDS011;18508;49.386;8.370;2022-09-09T09:49:55;15.20;;;3.83;;
31990;SDS011;18508;49.386;8.370;2022-09-09T09:52:26;8.43;;;2.10;;
31990;SDS011;18508;49.386;8.370;2022-09-09T09:54:57;7.80;;;2.38;;
31990;SDS011;18508;49.386;8.370;2022-09-09T09:57:34;9.40;;;2.88;;
31990;SDS011;18508;49.386;8.370;2022-09-09T10:00:12;11.10;;;1.90;;
31990;SDS011;18508;49.386;8.370;2022-09-09T10:02:43;4.90;;;1.88;;
31990;SDS011;18508;49.386;8.370;2022-09-09T10:05:16;7.28;;;1.60;;
31990;SDS011;18508;49.386;8.370;2022-09-09T10:08:02;10.35;;;2.20;;
31990;SDS011;18508;49.386;8.370;2022-09-09T10:10:35;8.75;;;2.00;;
31990;SDS011;18508;49.386;8.370;2022-09-09T10:13:18;8.13;;;2.65;;
31990;SDS011;18508;49.386;8.370;2022-09-09T10:15:52;5.68;;;1.83;;
31990;SDS011;18508;49.386;8.370;2022-09-09T10:18:35;8.18;;;2.83;;
31990;SDS011;18508;49.386;8.370;2022-09-09T10:21:13;4.60;;;1.80;;
31990;SDS011;18508;49.386;8.370;2022-09-09T10:24:02;9.52;;;2.80;;
31990;SDS011;18508;49.386;8.370;2022-09-09T10:26:51;9.75;;;2.10;;
31990;SDS011;18508;49.386;8.370;2022-09-09T10:29:32;7.70;;;2.05;;
31990;SDS011;18508;49.386;8.370;2022-09-09T10:32:28;12.38;;;1.67;;
31990;SDS011;18508;49.386;8.370;2022-09-09T10:35:13;5.25;;;1.40;;
31990;SDS011;18508;49.386;8.370;2022-09-09T10:38:00;9.15;;;1.88;;
31990;SDS011;18508;49.386;8.370;2022-09-09T10:40:42;9.60;;;2.03;;
31990;SDS011;18508;49.386;8.370;2022-09-09T10:43:22;5.60;;;1.63;;
31990;SDS011;18508;49.386;8.370;2022-09-09T10:46:01;8.35;;;1.58;;
31990;SDS011;18508;49.386;8.370;2022-09-09T10:48:43;5.38;;;1.63;;
31990;SDS011;18508;49.386;8.370;2022-09-09T10:54:04;5.32;;;1.67;;
31990;SDS011;18508;49.386;8.370;2022-09-09T10:56:43;7.88;;;1.48;;
31990;SDS011;18508;49.386;8.370;2022-09-09T10:59:16;6.37;;;1.90;;
31990;SDS011;18508;49.386;8.370;2022-09-09T11:01:51;6.30;;;1.67;;
31990;SDS011;18508;49.386;8.370;2022-09-09T11:04:27;6.07;;;1.20;;
31990;SDS011;18508;49.386;8.370;2022-09-09T11:07:05;6.43;;;1.20;;
31990;SDS011;18508;49.386;8.370;2022-09-09T11:09:38;11.75;;;1.65;;
31990;SDS011;18508;49.386;8.370;2022-09-09T11:12:17;7.20;;;1.52;;
31990;SDS011;18508;49.386;8.370;2022-09-09T11:14:48;9.25;;;1.33;;
31990;SDS011;18508;49.386;8.370;2022-09-09T11:17:20;6.20;;;1.48;;
31990;SDS011;18508;49.386;8.370;2022-09-09T11:22:22;7.85;;;1.55;;
31990;SDS011;18508;49.386;8.370;2022-09-09T11:24:57;5.55;;;1.42;;
31990;SDS011;18508;49.386;8.370;2022-09-09T11:27:29;5.75;;;1.50;;
31990;SDS011;18508;49.386;8.370;2022-09-09T11:30:12;6.40;;;1.40;;
31990;SDS011;18508;49.386;8.370;2022-09-09T11:33:13;5.97;;;1.73;;
31990;SDS011;18508;49.386;8.370;2022-09-09T11:36:03;5.32;;;1.30;;
31990;SDS011;18508;49.386;8.370;2022-09-09T11:38:49;4.35;;;1.42;;
31990;SDS011;18508;49.386;8.370;2022-09-09T11:41:19;6.43;;;1.30;;
31990;SDS011;18508;49.386;8.370;2022-09-09T11:43:49;6.25;;;1.30;;
31990;SDS011;18508;49.386;8.370;2022-09-09T11:46:19;5.55;;;1.40;;
31990;SDS011;18508;49.386;8.370;2022-09-09T11:49:00;4.70;;;1.30;;
31990;SDS011;18508;49.386;8.370;2022-09-09T11:51:29;4.53;;;1.20;;
31990;SDS011;18508;49.386;8.370;2022-09-09T11:53:59;6.18;;;1.13;;
31990;SDS011;18508;49.386;8.370;2022-09-09T11:56:31;7.80;;;1.20;;
31990;SDS011;18508;49.386;8.370;2022-09-09T11:59:02;4.50;;;1.30;;
31990;SDS011;18508;49.386;8.370;2022-09-09T12:01:36;6.25;;;1.45;;
31990;SDS011;18508;49.386;8.370;2022-09-09T12:04:16;3.28;;;1.45;;
31990;SDS011;18508;49.386;8.370;2022-09-09T12:06:56;9.30;;;1.70;;
31990;SDS011;18508;49.386;8.370;2022-09-09T12:09:28;5.85;;;1.08;;
31990;SDS011;18508;49.386;8.370;2022-09-09T12:12:21;7.10;;;1.25;;
31990;SDS011;18508;49.386;8.370;2022-09-09T12:14:55;5.93;;;1.20;;
31990;SDS011;18508;49.386;8.370;2022-09-09T12:17:27;7.03;;;1.20;;
31990;SDS011;18508;49.386;8.370;2022-09-09T12:20:02;8.43;;;1.20;;
31990;SDS011;18508;49.386;8.370;2022-09-09T12:22:37;4.45;;;1.05;;
31990;SDS011;18508;49.386;8.370;2022-09-09T12:25:20;6.22;;;1.20;;
31990;SDS011;18508;49.386;8.370;2022-09-09T12:28:02;4.90;;;1.40;;
31990;SDS011;18508;49.386;8.370;2022-09-09T12:30:44;6.82;;;1.50;;
31990;SDS011;18508;49.386;8.370;2022-09-09T12:33:20;7.72;;;1.20;;
31990;SDS011;18508;49.386;8.370;2022-09-09T12:35:53;7.68;;;1.33;;
31990;SDS011;18508;49.386;8.370;2022-09-09T12:38:26;4.80;;;1.30;;
31990;SDS011;18508;49.386;8.370;2022-09-09T12:41:01;8.82;;;1.33;;
31990;SDS011;18508;49.386;8.370;2022-09-09T12:43:30;6.07;;;0.98;;
31990;SDS011;18508;49.386;8.370;2022-09-09T12:46:00;5.80;;;1.35;;
31990;SDS011;18508;49.386;8.370;2022-09-09T12:48:32;4.80;;;1.35;;
31990;SDS011;18508;49.386;8.370;2022-09-09T12:51:07;6.10;;;1.20;;
31990;SDS011;18508;49.386;8.370;2022-09-09T12:53:46;5.68;;;1.20;;
31990;SDS011;18508;49.386;8.370;2022-09-09T12:56:20;4.72;;;1.00;;
31990;SDS011;18508;49.386;8.370;2022-09-09T12:58:54;3.92;;;0.90;;
31990;SDS011;18508;49.386;8.370;2022-09-09T13:01:25;6.38;;;1.00;;
31990;SDS011;18508;49.386;8.370;2022-09-09T13:03:55;6.07;;;1.10;;
31990;SDS011;18508;49.386;8.370;2022-09-09T13:06:26;5.95;;;1.30;;
31990;SDS011;18508;49.386;8.370;2022-09-09T13:08:57;4.45;;;0.90;;
31990;SDS011;18508;49.386;8.370;2022-09-09T13:11:30;4.43;;;0.82;;
31990;SDS011;18508;49.386;8.370;2022-09-09T13:14:04;3.45;;;0.68;;
31990;SDS011;18508;49.386;8.370;2022-09-09T13:16:35;2.40;;;0.47;;
31990;SDS011;18508;49.386;8.370;2022-09-09T13:19:09;4.43;;;0.65;;
31990;SDS011;18508;49.386;8.370;2022-09-09T13:21:43;2.60;;;0.30;;
31990;SDS011;18508;49.386;8.370;2022-09-09T13:24:22;1.75;;;0.60;;
31990;SDS011;18508;49.386;8.370;2022-09-09T13:26:55;3.05;;;0.98;;
31990;SDS011;18508;49.386;8.370;2022-09-09T13:29:24;2.40;;;0.68;;
31990;SDS011;18508;49.386;8.370;2022-09-09T13:31:52;2.85;;;0.40;;
31990;SDS011;18508;49.386;8.370;2022-09-09T13:34:26;6.38;;;0.80;;
31990;SDS011;18508;49.386;8.370;2022-09-09T13:36:58;1.83;;;0.40;;
31990;SDS011;18508;49.386;8.370;2022-09-09T13:39:29;4.32;;;0.77;;
31990;SDS011;18508;49.386;8.370;2022-09-09T13:41:57;2.75;;;0.55;;
31990;SDS011;18508;49.386;8.370;2022-09-09T13:44:26;1.95;;;0.52;;
31990;SDS011;18508;49.386;8.370;2022-09-09T13:46:59;2.67;;;0.70;;
31990;SDS011;18508;49.386;8.370;2022-09-09T13:49:35;4.15;;;0.88;;
31990;SDS011;18508;49.386;8.370;2022-09-09T13:52:05;2.90;;;0.90;;
31990;SDS011;18508;49.386;8.370;2022-09-09T13:54:37;3.65;;;0.70;;
31990;SDS011;18508;49.386;8.370;2022-09-09T13:57:05;2.33;;;0.77;;
31990;SDS011;18508;49.386;8.370;2022-09-09T13:59:41;5.75;;;0.85;;
31990;SDS011;18508;49.386;8.370;2022-09-09T14:02:29;3.50;;;0.90;;
31990;SDS011;18508;49.386;8.370;2022-09-09T14:04:57;3.40;;;0.93;;
31990;SDS011;18508;49.386;8.370;2022-09-09T14:07:26;3.15;;;0.60;;
31990;SDS011;18508;49.386;8.370;2022-09-09T14:09:54;2.85;;;0.75;;
31990;SDS011;18508;49.386;8.370;2022-09-09T14:12:23;2.92;;;0.82;;
31990;SDS011;18508;49.386;8.370;2022-09-09T14:14:51;5.10;;;0.63;;
31990;SDS011;18508;49.386;8.370;2022-09-09T14:17:21;3.95;;;0.50;;
31990;SDS011;18508;49.386;8.370;2022-09-09T14:19:51;2.88;;;1.00;;
31990;SDS011;18508;49.386;8.370;2022-09-09T14:22:19;3.80;;;0.90;;
31990;SDS011;18508;49.386;8.370;2022-09-09T14:24:49;3.05;;;0.50;;
31990;SDS011;18508;49.386;8.370;2022-09-09T14:27:18;3.92;;;1.13;;
31990;SDS011;18508;49.386;8.370;2022-09-09T14:29:46;4.60;;;0.80;;
31990;SDS011;18508;49.386;8.370;2022-09-09T14:32:15;3.38;;;0.85;;
31990;SDS011;18508;49.386;8.370;2022-09-09T14:34:43;2.90;;;0.82;;
31990;SDS011;18508;49.386;8.370;2022-09-09T14:37:11;5.70;;;1.35;;
31990;SDS011;18508;49.386;8.370;2022-09-09T14:39:39;5.47;;;1.17;;
31990;SDS011;18508;49.386;8.370;2022-09-09T14:42:11;2.50;;;1.00;;
31990;SDS011;18508;49.386;8.370;2022-09-09T14:44:40;5.18;;;1.02;;
31990;SDS011;18508;49.386;8.370;2022-09-09T14:47:08;4.32;;;0.80;;
31990;SDS011;18508;49.386;8.370;2022-09-09T14:49:36;8.88;;;1.40;;
31990;SDS011;18508;49.386;8.370;2022-09-09T14:52:08;6.07;;;1.10;;
31990;SDS011;18508;49.386;8.370;2022-09-09T14:54:38;7.15;;;1.58;;
31990;SDS011;18508;49.386;8.370;2022-09-09T14:57:06;9.32;;;1.40;;
31990;SDS011;18508;49.386;8.370;2022-09-09T14:59:36;6.30;;;1.20;;
31990;SDS011;18508;49.386;8.370;2022-09-09T15:02:05;6.22;;;1.52;;
31990;SDS011;18508;49.386;8.370;2022-09-09T15:04:40;5.22;;;1.73;;
31990;SDS011;18508;49.386;8.370;2022-09-09T15:07:10;5.00;;;1.83;;
31990;SDS011;18508;49.386;8.370;2022-09-09T15:09:38;6.25;;;1.50;;
31990;SDS011;18508;49.386;8.370;2022-09-09T15:12:06;7.38;;;1.67;;
31990;SDS011;18508;49.386;8.370;2022-09-09T15:14:34;8.73;;;1.83;;
31990;SDS011;18508;49.386;8.370;2022-09-09T15:17:04;4.45;;;1.33;;
31990;SDS011;18508;49.386;8.370;2022-09-09T15:19:32;3.50;;;0.82;;
31990;SDS011;18508;49.386;8.370;2022-09-09T15:22:01;5.60;;;1.33;;
31990;SDS011;18508;49.386;8.370;2022-09-09T15:24:29;4.55;;;1.10;;
31990;SDS011;18508;49.386;8.370;2022-09-09T15:26:57;3.10;;;1.20;;
31990;SDS011;18508;49.386;8.370;2022-09-09T15:29:26;6.18;;;1.50;;
31990;SDS011;18508;49.386;8.370;2022-09-09T15:31:56;3.08;;;0.80;;
31990;SDS011;18508;49.386;8.370;2022-09-09T15:34:24;3.75;;;0.98;;
31990;SDS011;18508;49.386;8.370;2022-09-09T15:36:54;5.43;;;1.15;;
31990;SDS011;18508;49.386;8.370;2022-09-09T15:39:22;5.03;;;1.17;;